Buhara, Uzbekistan
Current Conditions -  °F | °C
As of 12:00 PM on Saturday 20 Dec 2014 (Local Time) from UTSB Reporting Station
Clear Clear  
Wind Chill: 44°   Ceiling: Unl
Heat Index: 48°   Visibility: 5mi
Dew Point: 36°   Wind: 9mph
Humidity: 62%   Direction: 160°SSE
Pressure: 30.12"   Gusts: NA
Location:  39.72°N, 64.62°E
Report Text: UTSB 200700Z 16008KT 130V190 8000 NSC 09/02 Q1020 R01/CLRD70NOSIG
Loading
Personal Weather Stations






























Interactive Weather Map New forecast layout! Learn more

10-Day Weather Forecast

Advertisements
Track Severe Weather on mobile